Time,TemperatureF,DewpointF,PressureIn,WindDirection,WindDirectionDegrees,WindSpeedMPH,WindSpeedGustMPH,Humidity,HourlyPrecipIn,Conditions,Clouds,dailyrainin,SolarRadiationWatts/m^2,SoftwareType,DateUTC
2013-10-27 00:02:00,-999.0,-99.9,-100.00,NE,45,5.0,-999.0,-999,-99.99,,,-99.99,1.300000,,2013-10-27 04:02:00,
2013-10-27 00:24:00,61.0,56.0,-100.00,NE,52,4.0,-999.0,83,0.00,,,-99.99,1.300000,,2013-10-27 04:24:00,
2013-10-27 00:54:00,60.0,56.0,-100.00,NE,34,6.0,-999.0,86,0.00,,,-99.99,1.200000,,2013-10-27 04:54:00,
2013-10-27 01:04:00,60.0,56.0,-100.00,NE,34,6.0,-999.0,86,0.00,,,-99.99,1.200000,,2013-10-27 05:04:00,
2013-10-27 01:23:00,61.0,57.0,-100.00,NNE,29,6.0,-999.0,88,0.00,,,-99.99,1.300000,,2013-10-27 05:23:00,
2013-10-27 01:52:00,61.0,57.0,-100.00,NNE,22,6.0,-999.0,88,0.00,,,-99.99,1.300000,,2013-10-27 05:52:00,
2013-10-27 02:13:00,61.0,57.0,-100.00,NNE,26,6.0,-999.0,88,0.00,,,-99.99,1.300000,,2013-10-27 06:13:00,
2013-10-27 02:22:00,61.0,57.0,-100.00,NNE,23,6.0,-999.0,88,0.00,,,-99.99,1.300000,,2013-10-27 06:22:00,
2013-10-27 02:53:00,60.0,57.0,-100.00,NNE,26,6.0,-999.0,89,0.00,,,-99.99,1.300000,,2013-10-27 06:53:00,
2013-10-27 03:22:00,60.0,57.0,-100.00,NNE,33,6.0,-999.0,90,0.00,,,-99.99,1.300000,,2013-10-27 07:22:00,
2013-10-27 03:52:00,60.0,57.0,-100.00,NNE,17,6.0,-999.0,90,0.00,,,-99.99,1.300000,,2013-10-27 07:52:00,
2013-10-27 04:22:00,60.0,57.0,-100.00,NNE,23,7.0,-999.0,90,0.00,,,-99.99,1.300000,,2013-10-27 08:22:00,
2013-10-27 04:52:00,60.0,58.0,-100.00,NNE,24,7.0,-999.0,90,0.00,,,-99.99,1.300000,,2013-10-27 08:52:00,
2013-10-27 05:21:00,60.0,58.0,-100.00,NNE,26,8.0,-999.0,90,0.00,,,-99.99,1.300000,,2013-10-27 09:21:00,
2013-10-27 05:54:00,60.0,58.0,-100.00,NNE,28,7.0,-999.0,91,0.00,,,-99.99,1.300000,,2013-10-27 09:54:00,
2013-10-27 06:23:00,60.0,57.0,-100.00,NNE,33,6.0,-999.0,91,0.00,,,-99.99,1.200000,,2013-10-27 10:23:00,
2013-10-27 06:53:00,59.0,57.0,-100.00,NNE,28,7.0,-999.0,92,0.00,,,-99.99,1.200000,,2013-10-27 10:53:00,
2013-10-27 07:22:00,59.0,57.0,-100.00,NNE,25,8.0,-999.0,92,0.00,,,-99.99,1.200000,,2013-10-27 11:22:00,
2013-10-27 07:52:00,59.0,57.0,-100.00,NNE,25,7.0,-999.0,92,0.00,,,-99.99,1.700000,,2013-10-27 11:52:00,
2013-10-27 08:22:00,59.0,57.0,-100.00,NNE,20,7.0,-999.0,93,0.00,,,-99.99,19.700001,,2013-10-27 12:22:00,
2013-10-27 08:52:00,60.0,58.0,-100.00,NNE,22,7.0,-999.0,92,0.00,,,-99.99,110.500000,,2013-10-27 12:52:00,
2013-10-27 09:21:00,62.0,60.0,-100.00,NNE,22,8.0,-999.0,91,0.00,,,-99.99,230.600006,,2013-10-27 13:21:00,
2013-10-27 09:52:00,64.0,60.0,-100.00,NNE,28,9.0,-999.0,87,0.00,,,-99.99,314.200012,,2013-10-27 13:52:00,
2013-10-27 10:22:00,67.0,61.0,-100.00,NE,36,8.0,-999.0,81,0.00,,,-99.99,275.500000,,2013-10-27 14:22:00,
2013-10-27 10:52:00,69.0,61.0,-100.00,NE,46,8.0,-999.0,75,0.00,,,-99.99,484.600006,,2013-10-27 14:52:00,
2013-10-27 11:22:00,72.0,61.0,-100.00,NE,34,9.0,-999.0,69,0.00,,,-99.99,555.599976,,2013-10-27 15:22:00,
2013-10-27 11:54:00,73.0,60.0,-100.00,NE,36,8.0,-999.0,62,0.00,,,-99.99,616.099976,,2013-10-27 15:54:00,
2013-10-27 12:24:00,74.0,58.0,-100.00,NE,35,8.0,-999.0,56,0.00,,,-99.99,660.900024,,2013-10-27 16:24:00,
2013-10-27 12:53:00,76.0,57.0,-100.00,NNE,33,7.0,-999.0,52,0.00,,,-99.99,695.299988,,2013-10-27 16:53:00,
2013-10-27 13:22:00,76.0,57.0,-100.00,NE,37,6.0,-999.0,50,0.00,,,-99.99,707.000000,,2013-10-27 17:22:00,
2013-10-27 13:53:00,77.0,56.0,-100.00,NNE,23,7.0,-999.0,47,0.00,,,-99.99,704.000000,,2013-10-27 17:53:00,
2013-10-27 14:22:00,77.0,56.0,-100.00,NE,35,6.0,-999.0,47,0.00,,,-99.99,688.799988,,2013-10-27 18:22:00,
2013-10-27 14:52:00,78.0,57.0,-100.00,NNE,25,6.0,-999.0,47,0.00,,,-99.99,652.599976,,2013-10-27 18:52:00,
2013-10-27 15:12:00,78.0,57.0,-100.00,ENE,73,6.0,-999.0,48,0.00,,,-99.99,630.299988,,2013-10-27 19:12:00,
2013-10-27 15:22:00,78.0,56.0,-100.00,East,97,7.0,-999.0,47,0.00,,,-99.99,610.000000,,2013-10-27 19:22:00,
2013-10-27 15:52:00,78.0,55.0,-100.00,ESE,104,6.0,-999.0,44,0.00,,,-99.99,554.200012,,2013-10-27 19:52:00,
2013-10-27 16:22:00,79.0,54.0,-100.00,ENE,72,5.0,-999.0,41,0.00,,,-99.99,483.399994,,2013-10-27 20:22:00,
2013-10-27 16:52:00,78.0,53.0,-100.00,ESE,103,5.0,-999.0,41,0.00,,,-99.99,400.200012,,2013-10-27 20:52:00,
2013-10-27 17:21:00,79.0,54.0,-100.00,NE,45,5.0,-999.0,42,0.00,,,-99.99,312.500000,,2013-10-27 21:21:00,
2013-10-27 17:54:00,78.0,55.0,-100.00,East,82,4.0,-999.0,44,0.00,,,-99.99,217.500000,,2013-10-27 21:54:00,
2013-10-27 18:24:00,77.0,55.0,-100.00,NE,47,4.0,-999.0,47,0.00,,,-99.99,126.800003,,2013-10-27 22:24:00,
2013-10-27 18:54:00,75.0,56.0,-100.00,NE,51,4.0,-999.0,51,0.00,,,-99.99,28.299999,,2013-10-27 22:54:00,
2013-10-27 19:22:00,71.0,57.0,-100.00,NNE,33,4.0,-999.0,62,0.00,,,-99.99,3.300000,,2013-10-27 23:22:00,
2013-10-27 19:52:00,68.0,59.0,-100.00,NNE,14,4.0,-999.0,71,0.00,,,-99.99,1.200000,,2013-10-27 23:52:00,
2013-10-27 20:22:00,68.0,58.0,-100.00,NNE,14,5.0,-999.0,72,0.00,,,-99.99,1.300000,,2013-10-28 00:22:00,
2013-10-27 20:52:00,67.0,58.0,-100.00,NE,48,6.0,-999.0,70,0.00,,,-99.99,1.400000,,2013-10-28 00:52:00,
2013-10-27 21:21:00,65.0,58.0,-100.00,NE,44,5.0,-999.0,77,0.00,,,-99.99,1.300000,,2013-10-28 01:21:00,
2013-10-27 21:52:00,65.0,59.0,-100.00,NE,41,6.0,-999.0,81,0.00,,,-99.99,1.200000,,2013-10-28 01:52:00,
2013-10-27 22:22:00,65.0,58.0,-100.00,NE,45,6.0,-999.0,80,0.00,,,-99.99,1.200000,,2013-10-28 02:22:00,
2013-10-27 22:53:00,64.0,58.0,-100.00,NE,47,6.0,-999.0,81,0.00,,,-99.99,1.200000,,2013-10-28 02:53:00,
2013-10-27 23:22:00,63.0,57.0,-100.00,NE,41,7.0,-999.0,80,0.00,,,-99.99,1.200000,,2013-10-28 03:22:00,
2013-10-27 23:54:00,62.0,56.0,-100.00,NE,49,7.0,-999.0,79,0.00,,,-99.99,1.200000,,2013-10-28 03:54:00,